sensor_id;sensor_type;location;lat;lon;timestamp;P1;durP1;ratioP1;P2;durP2;ratioP2
11531;SDS011;5822;51.000;5.874;2022-08-30T00:00:05;25.43;;;23.00;;
11531;SDS011;5822;51.000;5.874;2022-08-30T00:02:54;31.33;;;28.67;;
11531;SDS011;5822;51.000;5.874;2022-08-30T00:05:20;31.83;;;29.10;;
11531;SDS011;5822;51.000;5.874;2022-08-30T00:07:47;29.83;;;27.13;;
11531;SDS011;5822;51.000;5.874;2022-08-30T00:10:13;27.87;;;25.27;;
11531;SDS011;5822;51.000;5.874;2022-08-30T00:12:39;28.93;;;26.13;;
11531;SDS011;5822;51.000;5.874;2022-08-30T00:15:07;29.27;;;26.67;;
11531;SDS011;5822;51.000;5.874;2022-08-30T00:17:33;30.00;;;27.30;;
11531;SDS011;5822;51.000;5.874;2022-08-30T00:19:59;33.40;;;30.60;;
11531;SDS011;5822;51.000;5.874;2022-08-30T00:22:25;29.50;;;27.00;;
11531;SDS011;5822;51.000;5.874;2022-08-30T00:24:51;30.20;;;27.43;;
11531;SDS011;5822;51.000;5.874;2022-08-30T00:27:17;29.93;;;27.17;;
11531;SDS011;5822;51.000;5.874;2022-08-30T00:29:42;26.47;;;24.13;;
11531;SDS011;5822;51.000;5.874;2022-08-30T00:32:08;25.90;;;23.53;;
11531;SDS011;5822;51.000;5.874;2022-08-30T00:34:34;25.00;;;22.50;;
11531;SDS011;5822;51.000;5.874;2022-08-30T00:36:59;24.87;;;22.37;;
11531;SDS011;5822;51.000;5.874;2022-08-30T00:39:26;24.73;;;22.43;;
11531;SDS011;5822;51.000;5.874;2022-08-30T00:41:52;27.10;;;24.60;;
11531;SDS011;5822;51.000;5.874;2022-08-30T00:44:18;26.60;;;24.07;;
11531;SDS011;5822;51.000;5.874;2022-08-30T00:46:43;27.10;;;24.77;;
11531;SDS011;5822;51.000;5.874;2022-08-30T00:49:09;27.37;;;24.87;;
11531;SDS011;5822;51.000;5.874;2022-08-30T00:51:36;24.83;;;22.47;;
11531;SDS011;5822;51.000;5.874;2022-08-30T00:54:03;25.53;;;23.13;;
11531;SDS011;5822;51.000;5.874;2022-08-30T00:56:29;25.70;;;23.30;;
11531;SDS011;5822;51.000;5.874;2022-08-30T00:58:57;26.43;;;24.03;;
11531;SDS011;5822;51.000;5.874;2022-08-30T01:01:27;25.87;;;23.63;;
11531;SDS011;5822;51.000;5.874;2022-08-30T01:03:53;27.30;;;24.70;;
11531;SDS011;5822;51.000;5.874;2022-08-30T01:06:20;27.47;;;25.03;;
11531;SDS011;5822;51.000;5.874;2022-08-30T01:08:46;27.13;;;24.73;;
11531;SDS011;5822;51.000;5.874;2022-08-30T01:11:13;27.10;;;24.70;;
11531;SDS011;5822;51.000;5.874;2022-08-30T01:13:41;27.20;;;24.70;;
11531;SDS011;5822;51.000;5.874;2022-08-30T01:16:07;26.07;;;23.67;;
11531;SDS011;5822;51.000;5.874;2022-08-30T01:18:34;25.70;;;23.23;;
11531;SDS011;5822;51.000;5.874;2022-08-30T01:23:55;26.43;;;23.90;;
11531;SDS011;5822;51.000;5.874;2022-08-30T01:26:22;28.37;;;25.67;;
11531;SDS011;5822;51.000;5.874;2022-08-30T01:28:49;28.60;;;26.10;;
11531;SDS011;5822;51.000;5.874;2022-08-30T01:31:18;28.97;;;26.27;;
11531;SDS011;5822;51.000;5.874;2022-08-30T01:33:44;27.77;;;25.07;;
11531;SDS011;5822;51.000;5.874;2022-08-30T01:36:11;28.00;;;25.40;;
11531;SDS011;5822;51.000;5.874;2022-08-30T01:38:46;26.30;;;23.90;;
11531;SDS011;5822;51.000;5.874;2022-08-30T01:43:44;26.93;;;24.23;;
11531;SDS011;5822;51.000;5.874;2022-08-30T01:46:11;26.13;;;23.80;;
11531;SDS011;5822;51.000;5.874;2022-08-30T01:48:38;27.57;;;25.17;;
11531;SDS011;5822;51.000;5.874;2022-08-30T01:51:04;27.37;;;24.83;;
11531;SDS011;5822;51.000;5.874;2022-08-30T01:53:33;27.87;;;25.30;;
11531;SDS011;5822;51.000;5.874;2022-08-30T01:55:58;28.27;;;25.67;;
11531;SDS011;5822;51.000;5.874;2022-08-30T01:58:24;28.60;;;26.00;;
11531;SDS011;5822;51.000;5.874;2022-08-30T02:00:50;26.20;;;23.70;;
11531;SDS011;5822;51.000;5.874;2022-08-30T02:03:15;26.40;;;24.00;;
11531;SDS011;5822;51.000;5.874;2022-08-30T02:05:41;27.00;;;24.50;;
11531;SDS011;5822;51.000;5.874;2022-08-30T02:08:07;27.10;;;24.70;;
11531;SDS011;5822;51.000;5.874;2022-08-30T02:10:33;26.70;;;24.37;;
11531;SDS011;5822;51.000;5.874;2022-08-30T02:12:59;28.63;;;26.03;;
11531;SDS011;5822;51.000;5.874;2022-08-30T02:15:24;28.37;;;25.77;;
11531;SDS011;5822;51.000;5.874;2022-08-30T02:17:50;28.90;;;26.20;;
11531;SDS011;5822;51.000;5.874;2022-08-30T02:20:16;28.70;;;26.17;;
11531;SDS011;5822;51.000;5.874;2022-08-30T02:22:41;26.20;;;23.90;;
11531;SDS011;5822;51.000;5.874;2022-08-30T02:25:07;26.87;;;24.47;;
11531;SDS011;5822;51.000;5.874;2022-08-30T02:27:33;25.77;;;23.47;;
11531;SDS011;5822;51.000;5.874;2022-08-30T02:29:59;27.47;;;24.87;;
11531;SDS011;5822;51.000;5.874;2022-08-30T02:32:25;26.60;;;24.10;;
11531;SDS011;5822;51.000;5.874;2022-08-30T02:34:50;28.37;;;25.87;;
11531;SDS011;5822;51.000;5.874;2022-08-30T02:37:16;28.30;;;25.53;;
11531;SDS011;5822;51.000;5.874;2022-08-30T02:39:42;28.30;;;25.70;;
11531;SDS011;5822;51.000;5.874;2022-08-30T02:42:08;28.83;;;26.23;;
11531;SDS011;5822;51.000;5.874;2022-08-30T02:44:33;26.63;;;23.93;;
11531;SDS011;5822;51.000;5.874;2022-08-30T02:46:59;25.73;;;23.33;;
11531;SDS011;5822;51.000;5.874;2022-08-30T02:49:25;25.90;;;23.60;;
11531;SDS011;5822;51.000;5.874;2022-08-30T02:51:50;27.13;;;24.63;;
11531;SDS011;5822;51.000;5.874;2022-08-30T02:54:16;26.90;;;24.20;;
11531;SDS011;5822;51.000;5.874;2022-08-30T02:56:47;29.37;;;26.67;;
11531;SDS011;5822;51.000;5.874;2022-08-30T02:59:13;28.97;;;26.27;;
11531;SDS011;5822;51.000;5.874;2022-08-30T03:01:40;29.33;;;26.60;;
11531;SDS011;5822;51.000;5.874;2022-08-30T03:04:06;29.87;;;27.10;;
11531;SDS011;5822;51.000;5.874;2022-08-30T03:06:32;27.70;;;25.10;;
11531;SDS011;5822;51.000;5.874;2022-08-30T03:08:58;27.73;;;25.17;;
11531;SDS011;5822;51.000;5.874;2022-08-30T03:11:23;27.77;;;25.17;;
11531;SDS011;5822;51.000;5.874;2022-08-30T03:13:49;27.57;;;24.83;;
11531;SDS011;5822;51.000;5.874;2022-08-30T03:16:15;26.87;;;24.30;;
11531;SDS011;5822;51.000;5.874;2022-08-30T03:18:41;28.70;;;26.20;;
11531;SDS011;5822;51.000;5.874;2022-08-30T03:21:10;29.07;;;26.30;;
11531;SDS011;5822;51.000;5.874;2022-08-30T03:23:37;28.90;;;26.30;;
11531;SDS011;5822;51.000;5.874;2022-08-30T03:26:04;28.57;;;26.07;;
11531;SDS011;5822;51.000;5.874;2022-08-30T03:28:31;29.70;;;27.00;;
11531;SDS011;5822;51.000;5.874;2022-08-30T03:30:57;28.17;;;25.57;;
11531;SDS011;5822;51.000;5.874;2022-08-30T03:33:22;27.77;;;25.20;;
11531;SDS011;5822;51.000;5.874;2022-08-30T03:35:48;28.67;;;25.93;;
11531;SDS011;5822;51.000;5.874;2022-08-30T03:38:15;28.27;;;25.70;;
11531;SDS011;5822;51.000;5.874;2022-08-30T03:40:41;30.00;;;26.93;;
11531;SDS011;5822;51.000;5.874;2022-08-30T03:43:06;30.40;;;27.60;;
11531;SDS011;5822;51.000;5.874;2022-08-30T03:45:32;30.27;;;27.47;;
11531;SDS011;5822;51.000;5.874;2022-08-30T03:47:58;29.80;;;27.13;;
11531;SDS011;5822;51.000;5.874;2022-08-30T03:50:23;29.13;;;26.53;;
11531;SDS011;5822;51.000;5.874;2022-08-30T03:52:49;28.93;;;26.33;;
11531;SDS011;5822;51.000;5.874;2022-08-30T03:55:15;28.30;;;25.60;;
11531;SDS011;5822;51.000;5.874;2022-08-30T03:57:41;29.87;;;27.17;;
11531;SDS011;5822;51.000;5.874;2022-08-30T04:00:07;28.93;;;26.43;;
11531;SDS011;5822;51.000;5.874;2022-08-30T04:02:34;29.73;;;27.03;;
11531;SDS011;5822;51.000;5.874;2022-08-30T04:05:00;30.87;;;28.07;;
11531;SDS011;5822;51.000;5.874;2022-08-30T04:07:26;30.93;;;27.93;;
11531;SDS011;5822;51.000;5.874;2022-08-30T04:09:52;27.70;;;25.00;;
11531;SDS011;5822;51.000;5.874;2022-08-30T04:12:17;28.93;;;26.33;;
11531;SDS011;5822;51.000;5.874;2022-08-30T04:14:43;27.53;;;25.03;;
11531;SDS011;5822;51.000;5.874;2022-08-30T04:17:08;27.67;;;25.07;;
11531;SDS011;5822;51.000;5.874;2022-08-30T04:19:34;27.20;;;24.70;;
11531;SDS011;5822;51.000;5.874;2022-08-30T04:21:59;28.17;;;25.43;;
11531;SDS011;5822;51.000;5.874;2022-08-30T04:24:25;27.10;;;24.57;;
11531;SDS011;5822;51.000;5.874;2022-08-30T04:26:51;28.73;;;26.07;;
11531;SDS011;5822;51.000;5.874;2022-08-30T04:29:17;28.17;;;25.57;;
11531;SDS011;5822;51.000;5.874;2022-08-30T04:31:43;27.90;;;25.40;;
11531;SDS011;5822;51.000;5.874;2022-08-30T04:34:10;28.33;;;25.77;;
11531;SDS011;5822;51.000;5.874;2022-08-30T04:36:36;29.00;;;26.20;;
11531;SDS011;5822;51.000;5.874;2022-08-30T04:39:03;27.23;;;24.73;;
11531;SDS011;5822;51.000;5.874;2022-08-30T04:41:28;28.03;;;25.23;;
11531;SDS011;5822;51.000;5.874;2022-08-30T04:43:54;29.00;;;26.20;;
11531;SDS011;5822;51.000;5.874;2022-08-30T04:46:20;29.30;;;26.70;;
11531;SDS011;5822;51.000;5.874;2022-08-30T04:48:46;30.07;;;27.37;;
11531;SDS011;5822;51.000;5.874;2022-08-30T04:51:13;29.97;;;27.17;;
11531;SDS011;5822;51.000;5.874;2022-08-30T04:53:41;27.47;;;24.87;;
11531;SDS011;5822;51.000;5.874;2022-08-30T04:57:21;27.73;;;25.20;;
11531;SDS011;5822;51.000;5.874;2022-08-30T04:59:47;30.37;;;27.57;;
11531;SDS011;5822;51.000;5.874;2022-08-30T05:02:13;29.50;;;26.93;;
11531;SDS011;5822;51.000;5.874;2022-08-30T05:04:39;46.50;;;42.90;;
11531;SDS011;5822;51.000;5.874;2022-08-30T05:07:24;43.53;;;40.27;;
11531;SDS011;5822;51.000;5.874;2022-08-30T05:09:50;43.07;;;39.83;;
11531;SDS011;5822;51.000;5.874;2022-08-30T05:12:15;44.30;;;41.00;;
11531;SDS011;5822;51.000;5.874;2022-08-30T05:14:41;43.73;;;40.23;;
11531;SDS011;5822;51.000;5.874;2022-08-30T05:17:06;44.57;;;41.27;;
11531;SDS011;5822;51.000;5.874;2022-08-30T05:19:32;42.03;;;38.93;;
11531;SDS011;5822;51.000;5.874;2022-08-30T05:21:58;41.37;;;38.10;;
11531;SDS011;5822;51.000;5.874;2022-08-30T05:24:24;42.20;;;38.87;;
11531;SDS011;5822;51.000;5.874;2022-08-30T05:26:50;40.43;;;37.13;;
11531;SDS011;5822;51.000;5.874;2022-08-30T05:29:15;43.10;;;39.73;;
11531;SDS011;5822;51.000;5.874;2022-08-30T05:31:42;43.63;;;40.23;;
11531;SDS011;5822;51.000;5.874;2022-08-30T05:34:08;42.90;;;39.70;;
11531;SDS011;5822;51.000;5.874;2022-08-30T05:36:35;41.87;;;38.50;;
11531;SDS011;5822;51.000;5.874;2022-08-30T05:39:02;43.67;;;40.37;;
11531;SDS011;5822;51.000;5.874;2022-08-30T05:41:32;44.30;;;40.83;;
11531;SDS011;5822;51.000;5.874;2022-08-30T05:43:58;42.50;;;38.90;;
11531;SDS011;5822;51.000;5.874;2022-08-30T05:46:25;40.10;;;37.00;;
11531;SDS011;5822;51.000;5.874;2022-08-30T05:48:55;40.77;;;37.27;;
11531;SDS011;5822;51.000;5.874;2022-08-30T05:51:22;43.50;;;40.00;;
11531;SDS011;5822;51.000;5.874;2022-08-30T05:53:50;41.57;;;38.40;;
11531;SDS011;5822;51.000;5.874;2022-08-30T05:56:18;41.90;;;38.77;;
11531;SDS011;5822;51.000;5.874;2022-08-30T05:58:46;43.60;;;40.30;;
11531;SDS011;5822;51.000;5.874;2022-08-30T06:01:22;43.50;;;40.30;;
11531;SDS011;5822;51.000;5.874;2022-08-30T06:03:51;42.97;;;39.57;;
11531;SDS011;5822;51.000;5.874;2022-08-30T06:06:18;40.17;;;36.87;;
11531;SDS011;5822;51.000;5.874;2022-08-30T06:08:45;42.37;;;38.80;;
11531;SDS011;5822;51.000;5.874;2022-08-30T06:11:12;43.30;;;39.67;;
11531;SDS011;5822;51.000;5.874;2022-08-30T06:13:41;42.73;;;39.27;;
11531;SDS011;5822;51.000;5.874;2022-08-30T06:16:07;42.97;;;39.67;;
11531;SDS011;5822;51.000;5.874;2022-08-30T06:18:35;43.43;;;40.20;;
11531;SDS011;5822;51.000;5.874;2022-08-30T06:21:01;33.30;;;30.60;;
11531;SDS011;5822;51.000;5.874;2022-08-30T06:23:27;33.43;;;30.63;;
11531;SDS011;5822;51.000;5.874;2022-08-30T06:25:53;33.03;;;30.47;;
11531;SDS011;5822;51.000;5.874;2022-08-30T06:28:19;31.63;;;28.93;;
11531;SDS011;5822;51.000;5.874;2022-08-30T06:30:44;31.40;;;28.70;;
11531;SDS011;5822;51.000;5.874;2022-08-30T06:33:10;31.50;;;28.77;;
11531;SDS011;5822;51.000;5.874;2022-08-30T06:35:36;31.47;;;28.50;;
11531;SDS011;5822;51.000;5.874;2022-08-30T06:38:01;31.27;;;28.50;;
11531;SDS011;5822;51.000;5.874;2022-08-30T06:40:28;31.90;;;29.20;;
11531;SDS011;5822;51.000;5.874;2022-08-30T06:42:54;32.17;;;29.47;;
11531;SDS011;5822;51.000;5.874;2022-08-30T06:45:19;32.93;;;30.33;;
11531;SDS011;5822;51.000;5.874;2022-08-30T06:47:46;31.20;;;28.63;;
11531;SDS011;5822;51.000;5.874;2022-08-30T06:50:13;30.57;;;28.03;;
11531;SDS011;5822;51.000;5.874;2022-08-30T06:52:40;31.57;;;28.87;;
11531;SDS011;5822;51.000;5.874;2022-08-30T06:55:08;30.97;;;28.47;;
11531;SDS011;5822;51.000;5.874;2022-08-30T06:57:38;31.07;;;28.33;;
11531;SDS011;5822;51.000;5.874;2022-08-30T07:00:05;31.90;;;29.20;;
11531;SDS011;5822;51.000;5.874;2022-08-30T07:02:33;31.70;;;29.10;;
11531;SDS011;5822;51.000;5.874;2022-08-30T07:05:01;30.77;;;27.90;;
11531;SDS011;5822;51.000;5.874;2022-08-30T07:07:27;30.77;;;27.97;;
11531;SDS011;5822;51.000;5.874;2022-08-30T07:09:53;31.20;;;28.47;;
11531;SDS011;5822;51.000;5.874;2022-08-30T07:12:19;30.83;;;28.27;;
11531;SDS011;5822;51.000;5.874;2022-08-30T07:14:44;31.30;;;28.37;;
11531;SDS011;5822;51.000;5.874;2022-08-30T07:17:10;34.13;;;29.23;;
11531;SDS011;5822;51.000;5.874;2022-08-30T07:19:54;56.60;;;34.03;;
11531;SDS011;5822;51.000;5.874;2022-08-30T07:22:20;38.47;;;31.17;;
11531;SDS011;5822;51.000;5.874;2022-08-30T07:24:46;33.20;;;29.97;;
11531;SDS011;5822;51.000;5.874;2022-08-30T07:27:12;32.13;;;29.17;;
11531;SDS011;5822;51.000;5.874;2022-08-30T07:29:39;32.20;;;29.37;;
11531;SDS011;5822;51.000;5.874;2022-08-30T07:32:04;30.97;;;28.03;;
11531;SDS011;5822;51.000;5.874;2022-08-30T07:34:31;30.57;;;27.87;;
11531;SDS011;5822;51.000;5.874;2022-08-30T07:36:57;30.20;;;27.70;;
11531;SDS011;5822;51.000;5.874;2022-08-30T07:39:22;30.23;;;27.73;;
11531;SDS011;5822;51.000;5.874;2022-08-30T07:41:48;32.07;;;29.17;;
11531;SDS011;5822;51.000;5.874;2022-08-30T07:44:15;31.23;;;28.50;;
11531;SDS011;5822;51.000;5.874;2022-08-30T07:46:41;31.23;;;28.53;;
11531;SDS011;5822;51.000;5.874;2022-08-30T07:49:07;31.03;;;28.33;;
11531;SDS011;5822;51.000;5.874;2022-08-30T07:51:36;30.00;;;27.43;;
11531;SDS011;5822;51.000;5.874;2022-08-30T07:54:02;29.90;;;27.20;;
11531;SDS011;5822;51.000;5.874;2022-08-30T07:56:28;30.90;;;28.20;;
11531;SDS011;5822;51.000;5.874;2022-08-30T07:58:54;30.53;;;28.10;;
11531;SDS011;5822;51.000;5.874;2022-08-30T08:01:20;29.10;;;26.60;;
11531;SDS011;5822;51.000;5.874;2022-08-30T08:03:47;30.47;;;27.83;;
11531;SDS011;5822;51.000;5.874;2022-08-30T08:06:14;29.10;;;26.43;;
11531;SDS011;5822;51.000;5.874;2022-08-30T08:08:41;30.60;;;27.87;;
11531;SDS011;5822;51.000;5.874;2022-08-30T08:11:12;37.70;;;30.10;;
11531;SDS011;5822;51.000;5.874;2022-08-30T08:13:49;30.10;;;27.53;;
11531;SDS011;5822;51.000;5.874;2022-08-30T08:16:15;30.23;;;27.77;;
11531;SDS011;5822;51.000;5.874;2022-08-30T08:18:41;31.53;;;29.13;;
11531;SDS011;5822;51.000;5.874;2022-08-30T08:21:07;37.67;;;34.67;;
11531;SDS011;5822;51.000;5.874;2022-08-30T08:23:33;38.80;;;36.10;;
11531;SDS011;5822;51.000;5.874;2022-08-30T08:25:58;48.43;;;45.13;;
11531;SDS011;5822;51.000;5.874;2022-08-30T08:28:24;50.83;;;47.63;;
11531;SDS011;5822;51.000;5.874;2022-08-30T08:30:50;56.00;;;52.57;;
11531;SDS011;5822;51.000;5.874;2022-08-30T08:33:17;55.87;;;52.47;;
11531;SDS011;5822;51.000;5.874;2022-08-30T08:35:43;41.13;;;38.30;;
11531;SDS011;5822;51.000;5.874;2022-08-30T08:38:09;42.63;;;39.80;;
11531;SDS011;5822;51.000;5.874;2022-08-30T08:40:49;46.40;;;43.13;;
11531;SDS011;5822;51.000;5.874;2022-08-30T08:43:16;42.10;;;39.13;;
11531;SDS011;5822;51.000;5.874;2022-08-30T08:45:49;45.20;;;42.13;;
11531;SDS011;5822;51.000;5.874;2022-08-30T08:48:53;28.23;;;25.73;;
11531;SDS011;5822;51.000;5.874;2022-08-30T08:51:20;29.67;;;27.37;;
11531;SDS011;5822;51.000;5.874;2022-08-30T08:54:10;30.93;;;28.43;;
11531;SDS011;5822;51.000;5.874;2022-08-30T08:56:39;41.43;;;38.73;;
11531;SDS011;5822;51.000;5.874;2022-08-30T08:59:08;51.33;;;47.93;;
11531;SDS011;5822;51.000;5.874;2022-08-30T09:01:35;39.40;;;36.70;;
11531;SDS011;5822;51.000;5.874;2022-08-30T09:04:05;40.97;;;38.27;;
11531;SDS011;5822;51.000;5.874;2022-08-30T09:06:54;40.80;;;38.10;;
11531;SDS011;5822;51.000;5.874;2022-08-30T09:09:41;50.73;;;47.53;;
11531;SDS011;5822;51.000;5.874;2022-08-30T09:12:08;42.00;;;39.00;;
11531;SDS011;5822;51.000;5.874;2022-08-30T09:14:36;46.17;;;43.17;;
11531;SDS011;5822;51.000;5.874;2022-08-30T09:17:12;42.47;;;39.37;;
11531;SDS011;5822;51.000;5.874;2022-08-30T09:19:42;51.67;;;48.47;;
11531;SDS011;5822;51.000;5.874;2022-08-30T09:25:05;40.37;;;37.57;;
11531;SDS011;5822;51.000;5.874;2022-08-30T09:27:33;41.27;;;38.33;;
11531;SDS011;5822;51.000;5.874;2022-08-30T09:30:15;44.40;;;41.27;;
11531;SDS011;5822;51.000;5.874;2022-08-30T09:32:48;43.70;;;40.60;;
11531;SDS011;5822;51.000;5.874;2022-08-30T09:35:21;52.80;;;49.40;;
11531;SDS011;5822;51.000;5.874;2022-08-30T09:40:42;41.83;;;39.07;;
11531;SDS011;5822;51.000;5.874;2022-08-30T09:45:43;41.03;;;38.30;;
11531;SDS011;5822;51.000;5.874;2022-08-30T10:13:36;41.60;;;38.90;;
11531;SDS011;5822;51.000;5.874;2022-08-30T10:21:30;54.67;;;51.30;;
11531;SDS011;5822;51.000;5.874;2022-08-30T10:24:02;54.50;;;51.10;;
11531;SDS011;5822;51.000;5.874;2022-08-30T10:26:32;40.87;;;38.17;;
11531;SDS011;5822;51.000;5.874;2022-08-30T10:34:30;50.90;;;47.57;;
11531;SDS011;5822;51.000;5.874;2022-08-30T10:37:09;50.43;;;47.33;;
11531;SDS011;5822;51.000;5.874;2022-08-30T10:39:42;56.23;;;52.73;;
11531;SDS011;5822;51.000;5.874;2022-08-30T10:42:18;47.73;;;44.73;;
11531;SDS011;5822;51.000;5.874;2022-08-30T10:44:48;37.70;;;35.10;;
11531;SDS011;5822;51.000;5.874;2022-08-30T10:47:31;39.10;;;36.40;;
11531;SDS011;5822;51.000;5.874;2022-08-30T10:55:22;47.87;;;44.77;;
11531;SDS011;5822;51.000;5.874;2022-08-30T10:57:57;49.70;;;46.60;;
11531;SDS011;5822;51.000;5.874;2022-08-30T11:00:29;49.50;;;46.40;;
11531;SDS011;5822;51.000;5.874;2022-08-30T11:03:28;31.87;;;29.57;;
11531;SDS011;5822;51.000;5.874;2022-08-30T11:14:25;46.00;;;43.20;;
11531;SDS011;5822;51.000;5.874;2022-08-30T11:16:52;46.50;;;43.60;;
11531;SDS011;5822;51.000;5.874;2022-08-30T11:19:21;35.20;;;32.53;;
11531;SDS011;5822;51.000;5.874;2022-08-30T11:24:58;33.20;;;30.90;;
11531;SDS011;5822;51.000;5.874;2022-08-30T11:27:39;46.83;;;43.47;;
11531;SDS011;5822;51.000;5.874;2022-08-30T11:35:42;48.83;;;45.83;;
11531;SDS011;5822;51.000;5.874;2022-08-30T11:38:56;34.87;;;32.37;;
11531;SDS011;5822;51.000;5.874;2022-08-30T12:02:40;31.13;;;28.83;;
11531;SDS011;5822;51.000;5.874;2022-08-30T12:10:53;46.70;;;43.90;;
11531;SDS011;5822;51.000;5.874;2022-08-30T12:21:08;30.80;;;28.50;;
11531;SDS011;5822;51.000;5.874;2022-08-30T12:23:48;39.50;;;36.97;;
11531;SDS011;5822;51.000;5.874;2022-08-30T12:28:50;48.70;;;45.63;;
11531;SDS011;5822;51.000;5.874;2022-08-30T12:31:29;49.67;;;46.67;;
11531;SDS011;5822;51.000;5.874;2022-08-30T12:33:56;31.40;;;29.10;;
11531;SDS011;5822;51.000;5.874;2022-08-30T12:36:32;32.67;;;30.27;;
11531;SDS011;5822;51.000;5.874;2022-08-30T12:39:09;32.60;;;30.30;;
11531;SDS011;5822;51.000;5.874;2022-08-30T12:41:39;37.97;;;35.53;;
11531;SDS011;5822;51.000;5.874;2022-08-30T12:44:06;42.17;;;39.43;;
11531;SDS011;5822;51.000;5.874;2022-08-30T12:46:38;46.17;;;43.27;;
11531;SDS011;5822;51.000;5.874;2022-08-30T12:49:05;47.33;;;44.43;;
11531;SDS011;5822;51.000;5.874;2022-08-30T12:51:39;42.53;;;39.60;;
11531;SDS011;5822;51.000;5.874;2022-08-30T12:54:07;29.97;;;27.77;;
11531;SDS011;5822;51.000;5.874;2022-08-30T12:57:01;33.33;;;30.93;;
11531;SDS011;5822;51.000;5.874;2022-08-30T13:04:39;44.80;;;41.90;;
11531;SDS011;5822;51.000;5.874;2022-08-30T13:07:05;48.05;;;45.03;;
11531;SDS011;5822;51.000;5.874;2022-08-30T13:09:39;48.37;;;45.37;;
11531;SDS011;5822;51.000;5.874;2022-08-30T13:12:08;51.17;;;47.87;;
11531;SDS011;5822;51.000;5.874;2022-08-30T13:14:44;33.83;;;31.43;;
11531;SDS011;5822;51.000;5.874;2022-08-30T13:17:18;34.57;;;32.17;;
11531;SDS011;5822;51.000;5.874;2022-08-30T13:22:39;44.03;;;41.15;;
11531;SDS011;5822;51.000;5.874;2022-08-30T13:25:07;44.13;;;41.33;;
11531;SDS011;5822;51.000;5.874;2022-08-30T13:27:35;48.60;;;45.60;;
11531;SDS011;5822;51.000;5.874;2022-08-30T13:30:06;49.43;;;46.43;;
11531;SDS011;5822;51.000;5.874;2022-08-30T13:32:33;49.87;;;46.57;;
11531;SDS011;5822;51.000;5.874;2022-08-30T13:35:01;34.30;;;31.90;;
11531;SDS011;5822;51.000;5.874;2022-08-30T13:37:28;33.93;;;31.43;;
11531;SDS011;5822;51.000;5.874;2022-08-30T13:39:56;34.10;;;31.50;;
11531;SDS011;5822;51.000;5.874;2022-08-30T13:42:21;37.70;;;35.20;;
11531;SDS011;5822;51.000;5.874;2022-08-30T13:44:47;45.97;;;43.17;;
11531;SDS011;5822;51.000;5.874;2022-08-30T13:47:12;46.25;;;42.90;;
11531;SDS011;5822;51.000;5.874;2022-08-30T13:49:39;46.20;;;43.27;;
11531;SDS011;5822;51.000;5.874;2022-08-30T13:52:07;48.60;;;45.67;;
11531;SDS011;5822;51.000;5.874;2022-08-30T13:54:33;47.95;;;44.95;;
11531;SDS011;5822;51.000;5.874;2022-08-30T13:56:59;31.65;;;29.30;;
11531;SDS011;5822;51.000;5.874;2022-08-30T13:59:25;34.13;;;31.73;;
11531;SDS011;5822;51.000;5.874;2022-08-30T14:01:52;32.10;;;29.80;;
11531;SDS011;5822;51.000;5.874;2022-08-30T14:04:19;40.13;;;37.43;;
11531;SDS011;5822;51.000;5.874;2022-08-30T14:06:45;46.58;;;43.60;;
11531;SDS011;5822;51.000;5.874;2022-08-30T14:09:11;48.85;;;45.83;;
11531;SDS011;5822;51.000;5.874;2022-08-30T14:11:38;48.38;;;45.40;;
11531;SDS011;5822;51.000;5.874;2022-08-30T14:14:04;49.15;;;46.10;;
11531;SDS011;5822;51.000;5.874;2022-08-30T14:16:30;32.75;;;30.45;;
11531;SDS011;5822;51.000;5.874;2022-08-30T14:18:57;33.22;;;30.88;;
11531;SDS011;5822;51.000;5.874;2022-08-30T14:21:24;32.88;;;30.48;;
11531;SDS011;5822;51.000;5.874;2022-08-30T14:23:53;41.50;;;38.80;;
11531;SDS011;5822;51.000;5.874;2022-08-30T14:26:21;44.08;;;41.35;;
11531;SDS011;5822;51.000;5.874;2022-08-30T14:28:58;48.67;;;45.58;;
11531;SDS011;5822;51.000;5.874;2022-08-30T14:31:23;49.30;;;46.20;;
11531;SDS011;5822;51.000;5.874;2022-08-30T14:33:49;48.70;;;45.40;;
11531;SDS011;5822;51.000;5.874;2022-08-30T14:36:15;32.13;;;29.73;;
11531;SDS011;5822;51.000;5.874;2022-08-30T14:38:42;32.53;;;29.98;;
11531;SDS011;5822;51.000;5.874;2022-08-30T14:41:08;34.50;;;32.10;;
11531;SDS011;5822;51.000;5.874;2022-08-30T14:43:34;37.47;;;34.97;;
11531;SDS011;5822;51.000;5.874;2022-08-30T14:46:01;44.13;;;41.25;;
11531;SDS011;5822;51.000;5.874;2022-08-30T14:48:27;43.85;;;40.85;;
11531;SDS011;5822;51.000;5.874;2022-08-30T14:50:53;49.35;;;46.28;;
11531;SDS011;5822;51.000;5.874;2022-08-30T14:53:18;36.15;;;33.50;;
11531;SDS011;5822;51.000;5.874;2022-08-30T14:55:44;35.20;;;32.70;;
11531;SDS011;5822;51.000;5.874;2022-08-30T14:58:09;34.40;;;31.98;;
11531;SDS011;5822;51.000;5.874;2022-08-30T15:00:38;36.03;;;33.53;;
11531;SDS011;5822;51.000;5.874;2022-08-30T15:03:04;44.78;;;41.92;;
11531;SDS011;5822;51.000;5.874;2022-08-30T15:05:29;43.63;;;40.70;;
11531;SDS011;5822;51.000;5.874;2022-08-30T15:07:56;49.95;;;46.85;;
11531;SDS011;5822;51.000;5.874;2022-08-30T15:10:22;33.53;;;31.20;;
11531;SDS011;5822;51.000;5.874;2022-08-30T15:12:49;35.53;;;32.95;;
11531;SDS011;5822;51.000;5.874;2022-08-30T15:15:18;33.53;;;30.92;;
11531;SDS011;5822;51.000;5.874;2022-08-30T15:17:45;37.25;;;34.72;;
11531;SDS011;5822;51.000;5.874;2022-08-30T15:20:11;43.78;;;41.08;;
11531;SDS011;5822;51.000;5.874;2022-08-30T15:22:38;43.03;;;40.22;;
11531;SDS011;5822;51.000;5.874;2022-08-30T15:25:04;48.47;;;45.38;;
11531;SDS011;5822;51.000;5.874;2022-08-30T15:27:30;31.98;;;29.70;;
11531;SDS011;5822;51.000;5.874;2022-08-30T15:29:55;32.13;;;29.73;;
11531;SDS011;5822;51.000;5.874;2022-08-30T15:32:21;33.90;;;31.50;;
11531;SDS011;5822;51.000;5.874;2022-08-30T15:34:47;41.63;;;38.95;;
11531;SDS011;5822;51.000;5.874;2022-08-30T15:37:12;46.85;;;43.85;;
11531;SDS011;5822;51.000;5.874;2022-08-30T15:39:46;50.63;;;47.53;;
11531;SDS011;5822;51.000;5.874;2022-08-30T15:42:14;49.67;;;46.67;;
11531;SDS011;5822;51.000;5.874;2022-08-30T15:44:43;32.88;;;30.40;;
11531;SDS011;5822;51.000;5.874;2022-08-30T15:47:09;33.15;;;30.85;;
11531;SDS011;5822;51.000;5.874;2022-08-30T15:49:35;33.47;;;31.13;;
11531;SDS011;5822;51.000;5.874;2022-08-30T15:52:02;41.85;;;39.05;;
11531;SDS011;5822;51.000;5.874;2022-08-30T15:54:29;45.60;;;42.80;;
11531;SDS011;5822;51.000;5.874;2022-08-30T15:56:55;47.67;;;44.67;;
11531;SDS011;5822;51.000;5.874;2022-08-30T15:59:24;48.90;;;45.90;;
11531;SDS011;5822;51.000;5.874;2022-08-30T16:01:51;33.20;;;30.80;;
11531;SDS011;5822;51.000;5.874;2022-08-30T16:04:16;31.85;;;29.65;;
11531;SDS011;5822;51.000;5.874;2022-08-30T16:06:42;37.92;;;35.33;;
11531;SDS011;5822;51.000;5.874;2022-08-30T16:09:08;45.10;;;42.20;;
11531;SDS011;5822;51.000;5.874;2022-08-30T16:11:34;48.22;;;45.13;;
11531;SDS011;5822;51.000;5.874;2022-08-30T16:14:00;53.35;;;50.13;;
11531;SDS011;5822;51.000;5.874;2022-08-30T16:16:26;35.40;;;32.90;;
11531;SDS011;5822;51.000;5.874;2022-08-30T16:18:52;37.50;;;35.03;;
11531;SDS011;5822;51.000;5.874;2022-08-30T16:21:20;37.88;;;35.38;;
11531;SDS011;5822;51.000;5.874;2022-08-30T16:23:47;48.00;;;45.10;;
11531;SDS011;5822;51.000;5.874;2022-08-30T16:26:13;48.92;;;45.83;;
11531;SDS011;5822;51.000;5.874;2022-08-30T16:28:42;52.30;;;49.20;;
11531;SDS011;5822;51.000;5.874;2022-08-30T16:31:08;35.95;;;33.35;;
11531;SDS011;5822;51.000;5.874;2022-08-30T16:33:34;37.47;;;34.97;;
11531;SDS011;5822;51.000;5.874;2022-08-30T16:36:01;37.03;;;34.58;;